Southwestern Research Station, Arizona Weather observations

Data are for 10 minute period ending at time listed.
 Day   Time   Solar   Ave.   Ave.  Ave.  Vector  Max.   Baro.   Total    
  of    of     Rad.   Air    Rel.  Wind   Wind   Wind  Press.  Precip.   
Year   Day            Temp.  Hum.  Speed  Dir.   Gust                    
2026   (PST)  Kw/m2    F      %     mph   deg.    mph    mb.     in.     
-------------------------------------------------------------------------
 121   15:00   0.12   66.5    43    1.6   215     5.2   831.6    0.00 
 121   15:10   0.78   66.6    44    2.6   202     7.0   831.6    0.00 
 121   15:20   0.32   67.5    43    2.0   193     8.8   831.6    0.00 
 121   15:30   0.41   66.8    46    3.7   175     8.2   831.6    0.00 
 121   15:40   0.26   65.6    48    1.5   162     7.7   831.6    0.00 
 121   15:50   0.59   67.1    45    2.4   177     8.5   831.5    0.00 
 121   16:00   0.32   67.3    42    3.0   177     8.7   831.4    0.00 
 121   16:10   0.40   67.2    43    1.4   164     5.6   831.5    0.00 
 121   16:20   0.49   68.6    40    1.8   164     6.6   831.5    0.00 
 121   16:30   0.30   68.2    40    2.2   191     6.4   831.5    0.00 
 121   16:40   0.41   68.6    38    3.0   179     7.4   831.5    0.00 
 121   16:50   0.48   68.5    38    1.5   133     6.4   831.4    0.00 
 121   17:00   0.44   69.3    36    2.3   161     7.0   831.4    0.00 
 121   17:10   0.40   68.8    35    0.8   108     7.4   831.5    0.00 
 121   17:20   0.36   68.5    30    2.6   241     7.6   831.5    0.00 
 121   17:30   0.14   68.1    28    1.9   223     5.6   831.6    0.00 
 121   17:40   0.07   67.7    29    1.0   218     5.7   831.6    0.00 
 121   17:50   0.06   67.3    30    0.7   272     5.0   831.6    0.00 
 121   18:00   0.04   66.4    32    0.9   284     4.0   831.7    0.00 
 121   18:10   0.03   65.0    34    0.4   276     2.7   831.8    0.00 
 121   18:20   0.02   63.0    41    0.4   261     3.3   831.8    0.00 
 121   18:30   0.01   61.0    43    0.5   284     2.6   831.9    0.00 
 121   18:40   0.01   59.6    50    0.3   293     2.2   832.0    0.00 
 121   18:50   0.01   57.6    56    0.1   282     2.6   832.1    0.00 
 121   19:00   0.01   56.0    59    0.0   264     1.1   832.3    0.00 
 121   19:10   0.00   54.6    64    0.1   260     2.0   832.3    0.00 
 121   19:20   0.00   53.4    68    0.2   241     1.6   832.2    0.00 
 121   19:30   0.00   52.4    70    0.1   267     1.4   832.2    0.00 
 121   19:40   0.00   51.5    73    0.1   269     0.8   832.1    0.00 
 121   19:50   0.00   50.9    76    0.5    54     6.0   832.3    0.00 
 121   20:00   0.00   51.8    74    0.4   292     2.7   832.4    0.00 
 121   20:10   0.00   52.2    71    1.0   313     5.5   832.6    0.00 
 121   20:20   0.00   51.1    76    0.0     0     0.0   832.7    0.00 
 121   20:30   0.00   50.6    78    0.0     0     0.0   832.8    0.00 
 121   20:40   0.00   49.8    80    0.3   278     2.5   833.0    0.00 
 121   20:50   0.00   49.4    81    0.1   275     1.2   833.3    0.00 
 121   21:00   0.00   48.8    82    0.2   264     2.9   833.4    0.00 
 121   21:10   0.00   48.3    83    0.2   262     1.2   833.6    0.00 
 121   21:20   0.00   48.1    85    0.0   245     0.4   833.7    0.00 
 121   21:30   0.00   47.7    85    0.3   251     2.2   833.8    0.00 
 121   21:40   0.00   47.4    85    0.0   240     0.9   833.9    0.00 
 121   21:50   0.00   47.0    86    0.0     0     0.0   833.9    0.00 
 121   22:00   0.00   46.6    87    0.5   255     1.8   833.8    0.00 
 121   22:10   0.00   46.4    88    0.2   266     1.9   833.8    0.00 
 121   22:20   0.00   45.9    89    0.0     0     0.0   833.8    0.00 
 121   22:30   0.00   45.4    90    0.1   263     2.1   833.8    0.00 
 121   22:40   0.00   45.1    90    0.0   257     0.7   833.9    0.00 
 121   22:50   0.00   45.1    92    0.0   326     0.7   834.1    0.00 
 121   23:00   0.00   45.2    92    0.2   293     2.0   834.3    0.00 
 121   23:10   0.00   45.5    91    0.0   251     0.4   834.5    0.00 
 121   23:20   0.00   45.2    92    0.1   334     1.7   834.6    0.00 
 121   23:30   0.00   45.0    91    0.1   265     1.0   834.7    0.00 
 121   23:40   0.00   44.6    92    0.0     0     0.0   834.8    0.00 
 121   23:50   0.00   44.5    92    0.0   255     1.2   834.7    0.00 
 122    0:00   0.00   44.4    93    0.1   263     1.4   834.6    0.00 
 122    0:10   0.00   44.3    93    0.1   269     1.2   834.7    0.00 
 122    0:20   0.00   45.1    94    0.1   316     1.7   834.8    0.00 
 122    0:30   0.00   45.1    93    0.0    30     0.1   834.8    0.00 
 122    0:40   0.00   44.7    93    0.0   271     0.5   834.9    0.00 
 122    0:50   0.00   44.7    94    0.1   251     1.2   835.0    0.00 
 122    1:00   0.00   44.5    94    0.0   314     0.9   835.0    0.00 
 122    1:10   0.00   44.9    95    0.0     0     0.0   835.0    0.00 
 122    1:20   0.00   44.9    95    0.0   226     0.7   835.0    0.00 
 122    1:30   0.00   44.6    94    0.0     0     0.0   835.0    0.00 
 122    1:40   0.00   44.8    95    0.2   353     1.0   835.0    0.00 
 122    1:50   0.00   45.8    95    0.2   318     1.2   835.0    0.00 
 122    2:00   0.00   46.1    94    0.0   272     0.7   835.0    0.00 
 122    2:10   0.00   46.5    94    0.1   283     0.7   834.9    0.00 
 122    2:20   0.00   46.9    92    0.2   246     1.3   834.8    0.00 
 122    2:30   0.00   47.0    92    0.0   261     0.9   834.8    0.00 
 122    2:40   0.00   47.2    92    0.0     0     0.0   834.8    0.00 
 122    2:50   0.00   47.2    92    0.0     0     0.0   834.8    0.00 
 122    3:00   0.00   47.3    93    0.5   131     2.7   834.8    0.00 
 122    3:10   0.00   47.0    93    0.6   276     2.4   834.9    0.00 
 122    3:20   0.00   46.6    93    0.0     0     0.0   834.9    0.00 
 122    3:30   0.00   46.2    94    0.0     0     0.0   835.1    0.00 
 122    3:40   0.00   46.1    95    0.0     0     0.0   835.1    0.00 
 122    3:50   0.00   45.8    95    0.0     0     0.0   835.3    0.00 
 122    4:00   0.00   45.6    95    0.1    78     0.9   835.3    0.00 
 122    4:10   0.00   46.0    96    0.5   270     1.8   835.3    0.00 
 122    4:20   0.00   46.4    96    0.1   254     1.2   835.3    0.00 
 122    4:30   0.00   47.2    96    0.1   333     1.1   835.5    0.00 
 122    4:40   0.00   47.4    95    0.4   244     2.1   835.5    0.00 
 122    4:50   0.00   47.6    93    0.7   250     3.8   835.6    0.00 
 122    5:00   0.00   48.1    90    0.5   113     4.5   835.7    0.00 
 122    5:10   0.00   48.4    84    1.5    87     5.8   835.7    0.00 
 122    5:20   0.00   48.9    81    1.0    65     4.8   835.7    0.00 
 122    5:30   0.00   49.1    81    0.4    96     3.1   835.8    0.00 
 122    5:40   0.00   49.2    82    0.1   198     1.4   836.0    0.00 
 122    5:50   0.01   49.0    84    0.4   298     1.8   836.1    0.00 
 122    6:00   0.01   49.2    84    0.4   318     2.2   836.1    0.00 
 122    6:10   0.01   49.2    84    0.1   262     0.9   836.2    0.00 
 122    6:20   0.02   49.3    85    0.2    80     1.3   836.4    0.00 
 122    6:30   0.04   49.4    83    0.0     0     0.0   836.4    0.00 
 122    6:40   0.03   49.7    82    0.0    32     1.4   836.5    0.00 
 122    6:50   0.05   50.0    81    0.0    36     1.4   836.5    0.00 
 122    7:00   0.09   50.5    81    0.1   169     1.5   836.6    0.00 
 122    7:10   0.11   50.8    78    0.4   105     1.7   836.7    0.00 
 122    7:20   0.13   51.3    76    0.2   116     1.8   836.7    0.00 
 122    7:30   0.15   51.9    73    0.2   209     1.2   836.8    0.00 
 122    7:40   0.21   52.6    71    0.7   211     2.4   836.9    0.00 
 122    7:50   0.32   53.9    69    1.1    45     2.7   837.0    0.00 
 122    8:00   0.33   54.3    67    0.7   243     2.3   837.0    0.00 
 122    8:10   0.24   55.1    65    0.8   230     2.9   837.1    0.00 
 122    8:20   0.23   55.0    65    1.0    77     3.3   837.3    0.00 
 122    8:30   0.19   55.0    65    1.6   118     5.1   837.5    0.00 
 122    8:40   0.20   55.2    65    1.5    75     5.7   837.5    0.00 
 122    8:50   0.23   55.4    63    2.1    97     6.8   837.6    0.00 
 122    9:00   0.29   55.7    63    2.2   119     7.2   837.7    0.00 
 122    9:10   0.32   56.1    62    2.6   128     8.3   837.8    0.00 
 122    9:20   0.33   56.1    62    3.7   102    10.2   837.9    0.00 
 122    9:30   0.36   56.1    63    3.2   105     8.3   838.1    0.00 
 122    9:40   0.29   56.2    62    2.9   104     5.9   838.1    0.00 
 122    9:50   0.32   56.1    62    2.4   102     5.2   838.3    0.00 
 122   10:00   0.38   57.1    61    2.4    97     6.6   838.4    0.00 
 122   10:10   0.57   58.2    58    3.3    90     7.7   838.4    0.00 
 122   10:20   0.77   59.7    55    3.2    89    10.3   838.1    0.00 
 122   10:30   0.99   60.2    54    2.5   114     5.8   838.1    0.00 
 122   10:40   0.98   62.3    51    3.3    84     8.6   838.1    0.00 
 122   10:50   0.80   61.7    51    3.6    95    10.2   838.1    0.00 
 122   11:00   0.72   61.5    51    3.2    93     7.0   838.0    0.00 
 122   11:10   1.12   62.6    49    2.4   116     7.2   837.8    0.00 
 122   11:20   0.83   63.2    47    3.2   120    10.3   837.7    0.00 
 122   11:30   0.92   63.5    47    3.0    64     7.9   837.6    0.00 
 122   11:40   0.46   63.2    48    2.1    98     5.9   837.5    0.00 
 122   11:50   0.45   61.8    50    2.3   108     6.1   837.4    0.00 
 122   12:00   0.79   63.4    48    2.5    97     7.7   837.3    0.00 
 122   12:10   1.02   65.7    46    3.0    69     7.8   837.1    0.00 
 122   12:20   0.42   63.7    48    2.4   134     8.0   837.0    0.00 
 122   12:30   0.53   62.8    50    3.2   148     8.2   837.0    0.00 
 122   12:40   0.68   64.5    48    2.6   196     9.8   836.8    0.00 
 122   12:50   0.60   64.4    48    2.4    97     5.8   836.8    0.00 
 122   13:00   0.34   63.6    48    2.8   154     7.4   836.8    0.00 
 122   13:10   0.35   62.3    50    2.9   149     8.0   836.7    0.00 
 122   13:20   0.47   62.9    50    2.8   209     8.5   836.6    0.00 
 122   13:30   0.68   63.8    48    3.1   182     7.8   836.4    0.00 
 122   13:40   0.57   63.5    49    2.9   157     7.3   836.5    0.00 
 122   13:50   0.37   63.8    48    2.5   141     6.9   836.5    0.00 
 122   14:00   0.89   64.6    47    3.6   121     8.1   836.3    0.00 
 122   14:10   0.37   65.1    45    2.5    83     8.7   836.2    0.00 
 122   14:20   0.38   64.4    47    2.6    96     8.2   836.1    0.00 
 122   14:30   0.24   63.8    47    2.0   152     6.5   836.0    0.00 
 122   14:40   0.23   63.2    48    3.3   192     7.3   835.8    0.00 
 122   14:50   0.34   63.5    48    0.9   177     4.8   835.7    0.00 

Return to Southwestern Research Station graphs page.


Western Regional Climate Center,wrcc@dri.edu